Time;durP1;ratioP1;P1;durP2;ratioP2;P2;SDS_P1;SDS_P2;PMS_P1;PMS_P2;Temp;Humidity;BMP_temperature;BMP_pressure;BME280_temperature;BME280_humidity;BME280_pressure;Samples;Min_cycle;Max_cycle;Signal;HPM_P1;HPM_P2
2022/06/03 00:02:12;;;;;;;4.30;3.03;;;21.00;59.20;;;;;;5013092;28;20880;-65
2022/06/03 00:04:40;;;;;;;3.13;2.90;;;21.00;59.30;;;;;;5016260;28;20935;-65
2022/06/03 00:07:30;;;;;;;3.30;3.00;;;20.90;59.50;;;;;;5009969;28;20452;-65
2022/06/03 00:10:15;;;;;;;3.20;2.90;;;20.90;59.60;;;;;;5014291;28;20493;-67
2022/06/03 00:13:00;;;;;;;7.07;3.20;;;20.80;59.70;;;;;;5015735;28;20457;-67
2022/06/03 00:15:56;;;;;;;4.80;3.40;;;20.80;59.60;;;;;;5013392;28;20468;-67
2022/06/03 00:18:48;;;;;;;2.90;2.70;;;20.80;59.70;;;;;;5014172;28;20477;-67
2022/06/03 00:21:35;;;;;;;3.20;2.90;;;20.70;59.70;;;;;;5011018;28;20475;-67
2022/06/03 00:24:11;;;;;;;5.50;3.20;;;20.70;59.80;;;;;;5012195;28;20496;-67
2022/06/03 00:26:53;;;;;;;10.07;3.10;;;20.70;60.00;;;;;;5011522;28;20868;-67
2022/06/03 00:29:47;;;;;;;3.20;2.90;;;20.70;60.10;;;;;;5013147;28;20467;-66
2022/06/03 00:32:16;;;;;;;2.90;2.70;;;20.60;60.20;;;;;;5006379;28;20452;-66
2022/06/03 00:34:57;;;;;;;3.17;2.87;;;20.60;60.30;;;;;;5003060;28;20850;-66
2022/06/03 00:37:41;;;;;;;5.03;3.10;;;20.60;60.50;;;;;;5013390;28;20977;-66
2022/06/03 00:40:27;;;;;;;3.40;2.90;;;20.50;60.70;;;;;;5012963;28;20462;-67
2022/06/03 00:43:40;;;;;;;4.53;2.93;;;20.50;61.00;;;;;;5015282;28;20505;-67
2022/06/03 00:46:16;;;;;;;3.43;3.13;;;20.50;61.30;;;;;;4985500;28;20487;-67
2022/06/03 00:48:48;;;;;;;7.20;3.43;;;20.50;61.50;;;;;;5011179;28;20438;-67
2022/06/03 00:51:30;;;;;;;3.50;3.20;;;20.40;61.50;;;;;;5012461;28;20431;-67
2022/06/03 00:54:09;;;;;;;4.80;3.00;;;20.40;61.70;;;;;;5011651;28;20785;-67
2022/06/03 00:56:47;;;;;;;3.20;2.90;;;20.40;62.00;;;;;;5013052;28;20893;-67
2022/06/03 00:59:49;;;;;;;2.83;2.63;;;20.40;61.90;;;;;;5013755;28;20451;-67
2022/06/03 01:02:22;;;;;;;3.53;3.23;;;20.40;62.20;;;;;;5015679;28;20527;-67
2022/06/03 01:05:24;;;;;;;3.13;2.83;;;20.40;62.20;;;;;;5015356;28;20447;-67
2022/06/03 01:08:27;;;;;;;3.13;2.90;;;20.30;62.40;;;;;;5013685;28;20470;-67
2022/06/03 01:11:20;;;;;;;3.70;3.30;;;20.30;62.70;;;;;;5016831;28;20839;-67
2022/06/03 01:14:25;;;;;;;3.57;3.27;;;20.30;62.80;;;;;;5017728;28;20505;-67
2022/06/03 01:17:04;;;;;;;5.80;2.80;;;20.30;62.90;;;;;;5013531;28;20462;-67
2022/06/03 01:19:44;;;;;;;3.57;3.00;;;20.30;63.20;;;;;;5017396;28;20975;-67
2022/06/03 01:22:47;;;;;;;4.13;3.33;;;20.20;63.30;;;;;;5018595;28;20434;-67
2022/06/03 01:25:28;;;;;;;5.03;3.23;;;20.20;63.30;;;;;;5015443;28;20431;-68
2022/06/03 01:28:25;;;;;;;3.87;2.90;;;20.20;63.50;;;;;;5016225;28;20857;-67
2022/06/03 01:31:25;;;;;;;3.00;2.80;;;20.10;63.60;;;;;;4984202;28;20439;-68
2022/06/03 01:34:12;;;;;;;5.17;3.43;;;20.00;63.60;;;;;;5016600;28;20439;-68
2022/06/03 01:37:05;;;;;;;3.33;3.03;;;19.90;64.10;;;;;;5018031;28;20475;-67
2022/06/03 01:39:48;;;;;;;3.53;3.13;;;19.90;64.20;;;;;;5015512;28;20439;-68
2022/06/03 01:42:39;;;;;;;3.47;3.17;;;19.80;64.30;;;;;;5017099;28;20791;-67
2022/06/03 01:45:33;;;;;;;5.47;3.40;;;19.70;64.30;;;;;;5015899;28;20440;-68
2022/06/03 01:48:17;;;;;;;3.43;3.13;;;19.70;64.30;;;;;;5016333;28;20430;-68
2022/06/03 01:51:02;;;;;;;3.40;3.00;;;19.70;65.20;;;;;;5015694;28;20485;-68
2022/06/03 01:53:57;;;;;;;3.50;3.20;;;19.70;64.50;;;;;;5015153;28;20525;-67
2022/06/03 01:56:35;;;;;;;3.30;3.00;;;19.60;64.40;;;;;;5018485;28;20502;-67
2022/06/03 01:59:21;;;;;;;3.40;3.10;;;19.60;64.00;;;;;;5017314;28;20441;-67
2022/06/03 02:02:24;;;;;;;3.10;2.90;;;19.50;64.40;;;;;;5016043;28;20428;-67
2022/06/03 02:05:14;;;;;;;5.30;3.47;;;19.40;64.70;;;;;;5016192;28;20474;-68
2022/06/03 02:08:18;;;;;;;3.43;3.13;;;19.30;65.20;;;;;;5020720;28;20812;-68
2022/06/03 02:11:17;;;;;;;3.37;3.07;;;19.30;65.00;;;;;;5015743;28;20462;-68
2022/06/03 02:14:23;;;;;;;4.30;3.30;;;19.30;65.20;;;;;;5012830;28;20494;-68
2022/06/03 02:17:13;;;;;;;3.60;3.30;;;19.30;65.20;;;;;;5015454;28;20452;-68
2022/06/03 02:20:12;;;;;;;3.77;3.47;;;19.20;65.30;;;;;;4997376;28;20435;-68
2022/06/03 02:23:15;;;;;;;3.27;2.97;;;19.10;65.70;;;;;;5018719;28;20447;-67
2022/06/03 02:25:40;;;;;;;3.73;3.43;;;19.10;65.90;;;;;;5018102;28;22165;-67
2022/06/03 02:28:39;;;;;;;3.30;3.00;;;19.10;65.90;;;;;;5015775;28;20551;-67
2022/06/03 02:31:27;;;;;;;4.53;2.87;;;19.10;65.70;;;;;;5018487;28;20176;-67
2022/06/03 02:34:01;;;;;;;2.90;2.70;;;19.10;66.00;;;;;;5019287;28;20811;-66
2022/06/03 02:36:57;;;;;;;3.60;3.17;;;19.00;66.10;;;;;;5017184;28;20538;-66
2022/06/03 02:39:47;;;;;;;3.60;3.30;;;19.00;66.40;;;;;;5014600;28;20463;-66
2022/06/03 02:42:28;;;;;;;4.47;3.67;;;18.90;66.40;;;;;;5015174;28;20442;-67
2022/06/03 02:45:20;;;;;;;3.40;3.10;;;18.90;66.40;;;;;;5016678;28;20427;-67
2022/06/03 02:48:14;;;;;;;4.30;4.00;;;18.90;66.40;;;;;;5020396;28;20449;-67
2022/06/03 02:51:09;;;;;;;3.53;3.23;;;18.90;66.50;;;;;;4998290;28;20479;-67
2022/06/03 02:53:59;;;;;;;3.50;3.20;;;18.80;66.60;;;;;;5014328;28;20432;-68
2022/06/03 02:56:30;;;;;;;4.27;3.00;;;18.80;66.80;;;;;;5013670;28;20452;-68
2022/06/03 02:59:08;;;;;;;3.33;3.03;;;18.70;67.20;;;;;;5013646;28;20488;-68
2022/06/03 03:01:58;;;;;;;4.20;3.90;;;18.70;67.10;;;;;;5014624;28;20864;-67
2022/06/03 03:04:52;;;;;;;4.00;3.13;;;18.70;67.10;;;;;;5016974;28;20447;-67
2022/06/03 03:07:49;;;;;;;10.70;3.27;;;18.60;67.20;;;;;;5005665;28;21031;-67
2022/06/03 03:10:36;;;;;;;3.27;2.97;;;18.70;67.10;;;;;;5014928;28;20467;-67
2022/06/03 03:13:28;;;;;;;3.20;3.00;;;18.70;66.90;;;;;;5011878;28;20455;-67
2022/06/03 03:16:20;;;;;;;4.33;3.80;;;18.60;67.20;;;;;;5015927;28;20565;-67
2022/06/03 03:19:23;;;;;;;5.60;3.50;;;18.60;66.80;;;;;;5011577;28;20439;-67
2022/06/03 03:22:24;;;;;;;3.83;3.43;;;18.60;66.90;;;;;;5015248;28;20472;-67
2022/06/03 03:25:02;;;;;;;3.80;3.30;;;18.60;67.00;;;;;;5010561;28;20431;-67
2022/06/03 03:27:52;;;;;;;3.80;3.40;;;18.60;67.20;;;;;;5003695;28;21018;-67
2022/06/03 03:30:29;;;;;;;4.53;3.70;;;18.50;67.20;;;;;;5019253;28;20467;-67
2022/06/03 03:33:46;;;;;;;3.50;3.20;;;18.50;67.20;;;;;;5014846;28;20434;-67
2022/06/03 03:36:34;;;;;;;3.30;3.00;;;18.50;67.50;;;;;;4986050;28;20497;-67
2022/06/03 03:39:24;;;;;;;3.40;3.10;;;18.50;67.30;;;;;;5013907;28;20435;-67
2022/06/03 03:42:31;;;;;;;3.50;3.20;;;18.50;67.50;;;;;;4993767;28;20905;-67
2022/06/03 03:45:15;;;;;;;4.27;3.70;;;18.50;67.30;;;;;;5011196;28;22111;-67
2022/06/03 03:47:55;;;;;;;3.60;3.27;;;18.50;67.40;;;;;;5007443;28;20451;-67
2022/06/03 03:50:50;;;;;;;3.60;3.30;;;18.50;67.40;;;;;;5010538;28;20471;-67
2022/06/03 03:53:45;;;;;;;3.27;2.97;;;18.50;67.60;;;;;;5015476;28;20426;-67
2022/06/03 03:57:06;;;;;;;3.63;3.13;;;18.40;67.70;;;;;;4964378;28;20477;-67
2022/06/03 03:59:53;;;;;;;4.47;3.63;;;18.40;67.50;;;;;;4972109;28;20477;-67
2022/06/03 04:02:34;;;;;;;3.80;3.50;;;18.40;67.40;;;;;;5012147;28;20851;-67
2022/06/03 04:05:23;;;;;;;3.53;3.23;;;18.40;67.60;;;;;;5016849;28;20416;-67
2022/06/03 04:08:24;;;;;;;4.50;3.60;;;18.40;67.70;;;;;;5005557;28;20959;-67
2022/06/03 04:11:28;;;;;;;3.50;3.20;;;18.30;67.70;;;;;;5015110;28;20471;-67
2022/06/03 04:14:28;;;;;;;3.20;2.90;;;18.30;68.00;;;;;;4943300;28;20454;-67
2022/06/03 04:17:12;;;;;;;3.93;3.53;;;18.30;67.80;;;;;;4934980;29;20459;-67
2022/06/03 04:20:20;;;;;;;3.53;3.23;;;18.30;68.10;;;;;;5001677;28;20443;-67
2022/06/03 04:23:19;;;;;;;3.37;3.00;;;18.20;68.10;;;;;;5018171;28;20524;-66
2022/06/03 04:26:22;;;;;;;3.30;3.00;;;18.10;68.40;;;;;;5004166;28;20456;-66
2022/06/03 04:28:56;;;;;;;3.60;3.30;;;18.10;68.50;;;;;;5017336;28;20740;-66
2022/06/03 04:31:41;;;;;;;5.50;3.30;;;18.10;68.60;;;;;;5015762;28;20545;-66
2022/06/03 04:34:28;;;;;;;3.43;3.13;;;18.10;68.90;;;;;;5018301;28;21171;-66
2022/06/03 04:37:29;;;;;;;3.17;2.80;;;18.10;68.50;;;;;;5018840;28;20486;-65
2022/06/03 04:40:23;;;;;;;4.90;3.33;;;18.10;68.40;;;;;;5018036;28;20423;-66
2022/06/03 04:43:04;;;;;;;5.70;3.17;;;18.10;68.60;;;;;;5017300;28;20859;-66
2022/06/03 04:45:51;;;;;;;3.70;3.40;;;18.10;68.40;;;;;;5020766;28;20435;-65
2022/06/03 04:48:55;;;;;;;3.80;3.50;;;18.10;68.60;;;;;;5020987;28;20423;-66
2022/06/03 04:51:48;;;;;;;4.70;3.03;;;18.10;68.60;;;;;;5019219;28;20446;-68
2022/06/03 04:54:19;;;;;;;3.67;3.20;;;18.10;68.70;;;;;;5016965;28;20500;-67
2022/06/03 04:57:06;;;;;;;3.60;3.30;;;18.10;68.70;;;;;;5019826;28;20443;-66
2022/06/03 04:59:49;;;;;;;3.60;3.30;;;18.20;69.00;;;;;;5021279;28;20939;-66
2022/06/03 05:03:05;;;;;;;3.83;3.30;;;18.20;68.90;;;;;;5020682;28;20829;-66
2022/06/03 05:06:03;;;;;;;3.40;3.10;;;18.20;68.90;;;;;;4975738;28;20576;-66
2022/06/03 05:09:08;;;;;;;3.53;3.23;;;18.20;69.00;;;;;;4958471;28;20595;-66
2022/06/03 05:12:06;;;;;;;4.77;3.13;;;18.20;69.10;;;;;;5015474;28;20444;-66
2022/06/03 05:15:02;;;;;;;4.57;4.07;;;18.20;69.10;;;;;;5018094;28;20483;-66
2022/06/03 05:17:57;;;;;;;3.90;3.20;;;18.30;68.90;;;;;;5018922;28;20459;-66
2022/06/03 05:20:35;;;;;;;3.17;2.83;;;18.30;68.70;;;;;;5001254;28;20420;-65
2022/06/03 05:23:32;;;;;;;3.63;3.23;;;18.40;68.60;;;;;;5013347;28;20983;-66
2022/06/03 05:26:21;;;;;;;5.50;3.50;;;18.30;68.80;;;;;;5018383;28;20939;-66
2022/06/03 05:29:17;;;;;;;3.87;2.93;;;18.40;69.10;;;;;;5000664;28;20505;-66
2022/06/03 05:32:07;;;;;;;3.63;3.00;;;18.40;69.30;;;;;;5006558;28;20436;-66
2022/06/03 05:34:51;;;;;;;3.63;3.20;;;18.50;69.50;;;;;;5016269;28;20440;-66
2022/06/03 05:37:58;;;;;;;3.70;3.10;;;18.50;69.90;;;;;;5018179;28;20450;-66
2022/06/03 05:40:47;;;;;;;3.77;3.37;;;18.60;69.90;;;;;;4996163;28;20467;-65
2022/06/03 05:43:31;;;;;;;7.23;3.60;;;18.60;69.80;;;;;;5011498;28;20439;-66
2022/06/03 05:46:10;;;;;;;5.17;3.37;;;18.70;70.10;;;;;;5017901;28;20789;-66
2022/06/03 05:48:54;;;;;;;5.50;3.80;;;18.70;71.00;;;;;;5013397;28;20605;-66
2022/06/03 05:51:44;;;;;;;4.27;3.23;;;18.80;70.80;;;;;;5012435;28;20534;-66
2022/06/03 05:54:41;;;;;;;4.27;3.63;;;18.90;70.40;;;;;;5014938;28;20872;-66
2022/06/03 05:57:34;;;;;;;3.40;3.10;;;18.90;70.70;;;;;;5014935;28;20489;-66
2022/06/03 06:00:45;;;;;;;4.43;3.97;;;19.00;71.40;;;;;;5018517;28;20511;-67
2022/06/03 06:03:10;;;;;;;3.80;3.50;;;19.00;71.60;;;;;;4966346;28;21229;-66
2022/06/03 06:05:58;;;;;;;6.13;3.60;;;19.00;71.80;;;;;;5019257;28;20439;-66
2022/06/03 06:08:38;;;;;;;4.10;3.33;;;19.10;71.80;;;;;;5023247;28;20181;-66
2022/06/03 06:11:28;;;;;;;4.50;3.40;;;19.20;71.60;;;;;;5018962;28;20791;-66
2022/06/03 06:14:02;;;;;;;3.90;3.60;;;19.20;71.10;;;;;;5016818;28;20431;-67
2022/06/03 06:16:40;;;;;;;5.40;3.70;;;19.30;71.50;;;;;;5015829;28;20523;-66
2022/06/03 06:19:13;;;;;;;4.13;3.73;;;19.30;71.90;;;;;;5001416;28;20928;-67
2022/06/03 06:22:14;;;;;;;3.80;3.50;;;19.40;71.70;;;;;;5015444;28;20564;-67
2022/06/03 06:24:48;;;;;;;3.83;3.37;;;19.50;71.70;;;;;;5015688;28;20432;-67
2022/06/03 06:27:34;;;;;;;4.47;4.00;;;19.60;72.10;;;;;;5015668;28;20454;-66
2022/06/03 06:30:17;;;;;;;4.50;3.60;;;19.70;72.10;;;;;;5018658;28;20473;-67
2022/06/03 06:32:42;;;;;;;4.50;4.10;;;19.70;72.50;;;;;;5016284;28;20429;-67
2022/06/03 06:35:31;;;;;;;3.90;3.60;;;19.70;72.80;;;;;;4998915;28;20482;-67
2022/06/03 06:38:07;;;;;;;4.17;3.77;;;19.80;73.10;;;;;;5016112;28;20181;-67
2022/06/03 06:41:02;;;;;;;7.50;6.33;;;19.80;73.70;;;;;;5002637;28;22589;-67
2022/06/03 06:43:41;;;;;;;10.50;7.67;;;19.90;73.40;;;;;;5002846;28;20452;-67
2022/06/03 06:46:12;;;;;;;10.07;8.93;;;19.90;73.40;;;;;;5019717;28;20457;-67
2022/06/03 06:49:05;;;;;;;6.90;5.27;;;20.00;73.80;;;;;;5017075;28;20423;-67
2022/06/03 06:51:55;;;;;;;4.30;3.90;;;20.10;74.30;;;;;;5015819;28;20444;-68
2022/06/03 06:54:52;;;;;;;6.10;3.97;;;20.10;73.50;;;;;;5012759;28;20443;-67
2022/06/03 06:57:29;;;;;;;7.63;5.30;;;20.30;73.10;;;;;;5014628;28;20455;-67
2022/06/03 07:00:36;;;;;;;7.23;6.30;;;20.30;72.90;;;;;;5015785;28;20447;-67
2022/06/03 07:03:21;;;;;;;5.53;4.30;;;20.30;72.80;;;;;;4987229;28;20470;-66
2022/06/03 07:06:03;;;;;;;4.57;4.17;;;20.40;72.70;;;;;;5004959;28;20460;-66
2022/06/03 07:08:38;;;;;;;7.20;6.17;;;20.60;72.40;;;;;;5013889;28;20430;-66
2022/06/03 07:11:06;;;;;;;4.10;3.63;;;20.60;72.30;;;;;;5006876;28;20584;-66
2022/06/03 07:13:40;;;;;;;13.80;8.30;;;20.60;73.10;;;;;;5016390;28;20776;-66
2022/06/03 07:19:49;;;;;;;5.10;3.60;;;20.70;72.90;;;;;;5011274;28;20438;-66
2022/06/03 07:22:25;;;;;;;5.50;4.87;;;20.90;72.50;;;;;;5011346;28;20798;-67
2022/06/03 07:25:25;;;;;;;5.40;4.80;;;21.00;71.70;;;;;;5017187;28;20423;-67
2022/06/03 07:28:32;;;;;;;5.47;4.37;;;21.00;71.50;;;;;;5011374;28;20740;-67
2022/06/03 07:31:34;;;;;;;4.07;3.77;;;21.10;71.80;;;;;;5014428;28;20549;-67
2022/06/03 07:34:15;;;;;;;4.80;3.77;;;21.10;72.00;;;;;;5011082;28;20847;-66
2022/06/03 07:36:54;;;;;;;4.03;3.63;;;21.20;71.60;;;;;;5014600;28;21057;-66
2022/06/03 07:39:20;;;;;;;8.50;4.17;;;21.30;71.00;;;;;;5001503;28;20959;-67
2022/06/03 07:42:11;;;;;;;4.53;3.73;;;21.40;70.60;;;;;;5012306;28;20436;-67
2022/06/03 07:44:58;;;;;;;5.83;3.80;;;21.40;70.70;;;;;;5015227;28;20450;-67
2022/06/03 07:47:28;;;;;;;4.73;4.20;;;21.40;70.90;;;;;;5019632;28;20486;-67
2022/06/03 07:50:04;;;;;;;7.10;4.40;;;21.50;71.10;;;;;;5016934;28;20988;-67
2022/06/03 07:52:32;;;;;;;4.57;3.70;;;21.60;71.10;;;;;;5015180;28;20440;-67
2022/06/03 07:54:59;;;;;;;5.50;3.83;;;21.60;70.90;;;;;;5019697;28;20829;-67
2022/06/03 07:57:28;;;;;;;6.93;3.80;;;21.60;71.00;;;;;;5014359;28;20463;-67
2022/06/03 08:00:00;;;;;;;6.57;5.23;;;21.70;70.90;;;;;;5015214;28;20438;-67
2022/06/03 08:02:27;;;;;;;6.70;3.87;;;21.70;71.00;;;;;;5014617;28;21164;-67
2022/06/03 08:05:17;;;;;;;6.30;4.60;;;21.70;71.60;;;;;;5014645;28;20825;-67
2022/06/03 08:13:20;;;;;;;4.17;3.77;;;22.00;71.80;;;;;;5004944;28;20501;-68
2022/06/03 08:15:58;;;;;;;3.73;3.27;;;22.10;71.30;;;;;;5015474;28;20435;-68
2022/06/03 08:18:29;;;;;;;4.80;4.30;;;22.10;71.50;;;;;;5021754;28;20188;-67
2022/06/03 08:21:02;;;;;;;4.67;3.90;;;22.20;71.90;;;;;;5000432;28;20465;-66
2022/06/03 08:23:30;;;;;;;3.87;3.37;;;22.20;71.80;;;;;;5016847;28;20535;-66
2022/06/03 08:25:59;;;;;;;5.57;5.00;;;22.20;71.30;;;;;;5022447;28;20447;-66
2022/06/03 08:28:27;;;;;;;5.57;4.17;;;22.40;72.00;;;;;;5015453;28;20466;-66
2022/06/03 08:30:56;;;;;;;12.97;9.03;;;22.50;71.90;;;;;;5018236;28;20474;-67
2022/06/03 08:33:27;;;;;;;5.10;4.40;;;22.40;72.20;;;;;;5022015;28;20507;-66
2022/06/03 08:35:53;;;;;;;6.53;4.37;;;22.50;73.00;;;;;;5021581;28;20456;-67
2022/06/03 08:38:34;;;;;;;8.33;7.50;;;22.60;72.80;;;;;;5016329;28;20431;-67
2022/06/03 08:41:10;;;;;;;7.60;5.47;;;22.80;72.50;;;;;;5021541;28;20180;-67
2022/06/03 08:43:58;;;;;;;4.20;3.80;;;22.90;72.80;;;;;;5019938;28;20481;-67
2022/06/03 08:46:28;;;;;;;4.63;4.00;;;23.10;72.60;;;;;;5017562;28;20447;-67
2022/06/03 08:49:03;;;;;;;5.70;4.27;;;23.20;72.40;;;;;;5020727;28;20427;-67
2022/06/03 08:51:46;;;;;;;4.80;3.87;;;23.30;72.10;;;;;;5020810;28;20438;-67
2022/06/03 08:54:46;;;;;;;6.90;4.97;;;23.40;71.70;;;;;;5018643;28;20435;-67
2022/06/03 08:57:39;;;;;;;7.50;4.07;;;23.60;71.20;;;;;;5019709;28;20487;-67
2022/06/03 09:00:21;;;;;;;4.90;3.77;;;23.60;71.00;;;;;;5019111;28;20419;-67
2022/06/03 09:02:59;;;;;;;5.63;4.00;;;23.70;70.20;;;;;;5022108;28;20435;-67
2022/06/03 09:05:47;;;;;;;4.33;3.93;;;23.80;70.30;;;;;;5005794;28;20440;-67
2022/06/03 09:08:22;;;;;;;5.73;5.13;;;23.70;70.60;;;;;;5018258;28;20458;-67
2022/06/03 09:10:52;;;;;;;8.93;5.00;;;23.80;70.80;;;;;;5022721;28;20465;-68
2022/06/03 09:13:44;;;;;;;4.93;4.00;;;24.00;71.30;;;;;;5012610;28;20526;-67
2022/06/03 09:16:14;;;;;;;4.87;4.00;;;24.00;72.30;;;;;;5017701;28;20539;-67
2022/06/03 09:19:15;;;;;;;4.53;4.00;;;24.20;71.30;;;;;;5019314;28;20518;-67
2022/06/03 09:21:46;;;;;;;5.10;4.33;;;24.30;71.10;;;;;;5017343;28;20436;-67
2022/06/03 09:24:25;;;;;;;8.13;4.00;;;24.40;71.10;;;;;;5001742;28;20441;-68
2022/06/03 09:26:54;;;;;;;5.87;4.50;;;24.30;70.90;;;;;;5015354;28;20478;-68
2022/06/03 09:29:21;;;;;;;4.90;4.40;;;24.40;70.90;;;;;;5011019;28;21461;-69
2022/06/03 09:32:00;;;;;;;4.13;3.73;;;24.40;71.10;;;;;;5014288;28;20466;-69
2022/06/03 09:34:42;;;;;;;4.60;3.97;;;24.30;71.90;;;;;;5016843;28;20475;-69
2022/06/03 09:37:15;;;;;;;4.33;3.93;;;24.30;71.30;;;;;;5016884;28;20464;-68
2022/06/03 09:39:44;;;;;;;4.00;3.70;;;24.40;72.10;;;;;;5018379;28;20774;-67
2022/06/03 09:42:11;;;;;;;11.87;4.20;;;24.50;71.70;;;;;;5015232;28;20516;-67
2022/06/03 09:44:38;;;;;;;4.73;4.20;;;24.60;71.70;;;;;;5020349;28;20499;-70
2022/06/03 09:47:07;;;;;;;4.60;4.20;;;24.80;71.90;;;;;;5007792;28;20522;-68
2022/06/03 09:49:33;;;;;;;4.80;4.40;;;25.00;72.80;;;;;;5009636;28;20554;-68
2022/06/03 09:52:01;;;;;;;6.73;4.77;;;25.20;72.20;;;;;;5015553;28;20523;-66
2022/06/03 09:54:34;;;;;;;4.73;4.30;;;25.50;70.40;;;;;;4992543;28;20502;-67
2022/06/03 09:57:06;;;;;;;5.33;4.47;;;25.70;69.90;;;;;;5012702;28;20462;-67
2022/06/03 09:59:35;;;;;;;9.17;4.60;;;25.90;69.40;;;;;;4998471;28;20475;-67
2022/06/03 10:02:02;;;;;;;6.27;4.30;;;26.10;69.60;;;;;;5001398;28;21006;-67
2022/06/03 10:04:28;;;;;;;4.30;4.00;;;26.30;69.90;;;;;;5014934;28;20479;-67
2022/06/03 10:06:55;;;;;;;5.67;4.00;;;26.40;69.40;;;;;;5012477;28;20506;-67
2022/06/03 10:17:49;;;;;;;5.60;4.60;;;27.10;66.80;;;;;;5018856;28;20446;-67
2022/06/03 10:20:16;;;;;;;5.13;4.57;;;27.30;66.70;;;;;;5014433;28;20530;-67
2022/06/03 10:22:44;;;;;;;7.50;5.03;;;27.30;66.90;;;;;;4985016;28;20435;-67
2022/06/03 10:25:10;;;;;;;4.53;4.10;;;27.30;66.50;;;;;;5011501;28;20531;-67
2022/06/03 10:27:36;;;;;;;5.20;4.80;;;27.40;65.20;;;;;;5014890;28;20537;-67
2022/06/03 10:30:05;;;;;;;5.50;4.53;;;27.60;64.80;;;;;;5019938;28;20459;-67
2022/06/03 10:32:30;;;;;;;4.97;4.57;;;27.60;64.70;;;;;;5019153;28;20270;-68
2022/06/03 10:35:13;;;;;;;8.67;4.77;;;27.50;64.20;;;;;;5013327;28;20432;-67
2022/06/03 10:37:52;;;;;;;6.20;4.00;;;27.40;64.00;;;;;;5016118;28;20204;-68
2022/06/03 10:40:20;;;;;;;5.70;4.80;;;27.50;64.30;;;;;;5013991;28;20435;-67
2022/06/03 10:42:48;;;;;;;4.90;4.13;;;27.60;64.40;;;;;;5012771;28;20470;-67
2022/06/03 10:45:14;;;;;;;5.30;4.80;;;27.50;64.50;;;;;;5014188;28;20453;-68
2022/06/03 10:47:43;;;;;;;5.70;4.03;;;27.60;65.00;;;;;;5011487;28;20448;-67
2022/06/03 10:50:33;;;;;;;5.70;3.90;;;27.50;64.50;;;;;;5012490;28;20962;-68
2022/06/03 11:01:44;;;;;;;6.27;4.20;;;27.20;64.90;;;;;;4967878;28;20440;-68
2022/06/03 11:04:25;;;;;;;5.03;4.60;;;26.90;65.60;;;;;;5014934;28;20438;-70
2022/06/03 11:06:51;;;;;;;5.33;4.90;;;26.90;66.20;;;;;;5003002;28;20537;-68
2022/06/03 11:09:17;;;;;;;5.40;5.00;;;26.80;66.20;;;;;;4999472;28;20471;-68
2022/06/03 11:11:57;;;;;;;5.13;4.67;;;26.90;66.40;;;;;;5008184;28;20656;-68
2022/06/03 11:14:39;;;;;;;4.67;4.27;;;27.00;66.40;;;;;;5011508;28;20454;-68
2022/06/03 11:17:21;;;;;;;5.40;4.40;;;27.00;66.30;;;;;;5001659;28;21712;-68
2022/06/03 11:19:55;;;;;;;5.20;4.70;;;27.10;65.90;;;;;;5011316;28;20863;-68
2022/06/03 11:22:43;;;;;;;4.87;4.43;;;27.10;65.70;;;;;;5012573;28;20436;-68
2022/06/03 11:25:25;;;;;;;4.67;4.27;;;27.20;65.60;;;;;;5012838;28;20431;-68
2022/06/03 11:27:58;;;;;;;4.67;4.17;;;27.10;65.80;;;;;;5012357;28;20431;-68
2022/06/03 11:30:46;;;;;;;5.20;4.70;;;27.00;66.20;;;;;;5016705;28;20458;-70
2022/06/03 11:33:36;;;;;;;4.40;4.00;;;27.10;66.60;;;;;;5012523;28;20770;-68
2022/06/03 11:36:24;;;;;;;6.17;4.77;;;27.20;66.30;;;;;;5015628;28;20794;-69
2022/06/03 11:39:03;;;;;;;6.40;5.10;;;27.30;66.50;;;;;;5016731;28;20428;-67
2022/06/03 11:41:38;;;;;;;4.53;4.13;;;27.50;66.10;;;;;;5014416;28;20450;-68
2022/06/03 11:44:43;;;;;;;7.57;4.70;;;27.80;65.80;;;;;;5014954;28;20426;-69
2022/06/03 11:47:20;;;;;;;5.30;4.80;;;28.10;66.70;;;;;;5016221;28;20458;-70
2022/06/03 11:49:46;;;;;;;8.23;6.30;;;28.30;64.40;;;;;;5013252;28;20470;-69
2022/06/03 11:52:13;;;;;;;5.03;4.60;;;28.50;64.50;;;;;;5015351;28;20420;-69
2022/06/03 11:54:40;;;;;;;4.87;4.47;;;28.70;63.90;;;;;;5016254;28;20830;-68
2022/06/03 11:57:07;;;;;;;6.60;4.77;;;28.80;63.70;;;;;;5014381;28;20456;-68
2022/06/03 11:59:48;;;;;;;4.63;4.23;;;28.80;63.50;;;;;;5001687;28;20927;-70
2022/06/03 12:02:56;;;;;;;7.00;5.30;;;28.90;63.30;;;;;;5016150;28;20402;-70
2022/06/03 12:05:27;;;;;;;5.63;4.40;;;29.10;62.90;;;;;;5001627;28;20450;-68
2022/06/03 12:08:08;;;;;;;5.80;5.30;;;29.20;62.80;;;;;;5014994;28;20858;-69
2022/06/03 12:10:50;;;;;;;8.03;6.80;;;29.10;62.40;;;;;;5015236;28;21062;-68
2022/06/03 12:13:33;;;;;;;6.70;4.70;;;29.00;62.70;;;;;;5007792;28;20924;-68
2022/06/03 12:16:10;;;;;;;5.20;4.80;;;29.20;62.50;;;;;;5011147;28;20506;-68
2022/06/03 12:18:37;;;;;;;5.17;4.70;;;29.90;62.70;;;;;;5011811;28;20443;-68
2022/06/03 12:21:11;;;;;;;4.80;4.30;;;30.40;60.20;;;;;;5016318;28;20874;-68
2022/06/03 12:23:37;;;;;;;6.17;5.67;;;30.40;59.80;;;;;;5009915;28;20454;-67
2022/06/03 12:26:24;;;;;;;5.57;5.07;;;30.20;59.40;;;;;;5013634;28;20442;-67
2022/06/03 12:28:54;;;;;;;5.83;4.13;;;29.90;59.60;;;;;;5013590;28;20185;-68
2022/06/03 12:31:20;;;;;;;5.00;4.50;;;29.60;60.20;;;;;;5014424;28;20432;-67
2022/06/03 12:33:58;;;;;;;5.10;4.60;;;29.50;60.50;;;;;;5010555;28;20431;-68
2022/06/03 12:36:47;;;;;;;5.43;4.93;;;29.40;61.20;;;;;;4999494;28;20792;-67
2022/06/03 12:39:31;;;;;;;5.30;4.80;;;29.40;61.10;;;;;;5011617;28;20501;-67
2022/06/03 12:42:04;;;;;;;4.87;4.30;;;29.10;62.00;;;;;;5012354;28;20471;-67
2022/06/03 12:44:44;;;;;;;7.33;5.63;;;28.90;62.60;;;;;;5012543;28;20963;-67
2022/06/03 12:47:18;;;;;;;6.23;5.43;;;28.90;63.70;;;;;;5011814;28;20521;-68
2022/06/03 12:49:44;;;;;;;5.50;5.00;;;28.60;64.20;;;;;;5012248;28;20462;-67
2022/06/03 12:52:35;;;;;;;7.73;5.97;;;28.50;64.40;;;;;;5019132;28;20418;-69
2022/06/03 12:55:21;;;;;;;5.67;5.17;;;28.60;64.20;;;;;;5016532;28;20951;-67
2022/06/03 12:57:55;;;;;;;10.30;5.50;;;28.40;64.70;;;;;;5017635;28;20443;-67
2022/06/03 13:00:21;;;;;;;6.50;5.90;;;28.30;65.00;;;;;;5017587;28;20993;-68
2022/06/03 13:02:54;;;;;;;7.53;6.90;;;28.30;65.40;;;;;;5013150;28;20590;-68
2022/06/03 13:05:33;;;;;;;8.33;5.70;;;28.10;65.40;;;;;;5002922;28;20185;-68
2022/06/03 13:07:59;;;;;;;6.00;5.30;;;28.00;65.90;;;;;;5013778;28;20857;-69
2022/06/03 13:10:27;;;;;;;6.20;5.60;;;28.00;66.00;;;;;;5017296;28;20573;-68
2022/06/03 13:12:55;;;;;;;7.30;5.57;;;27.80;66.40;;;;;;5015480;28;20208;-67
2022/06/03 13:15:21;;;;;;;9.90;5.87;;;27.60;66.90;;;;;;5003740;28;20424;-67
2022/06/03 13:20:49;;;;;;;6.20;5.57;;;27.40;67.50;;;;;;5019850;28;20206;-69
2022/06/03 13:23:20;;;;;;;5.63;5.10;;;27.40;68.50;;;;;;5019008;28;20423;-69
2022/06/03 13:25:47;;;;;;;6.83;5.40;;;27.50;67.70;;;;;;5017486;28;20455;-68
2022/06/03 13:28:30;;;;;;;7.77;5.23;;;27.60;67.10;;;;;;5021060;28;20510;-68
2022/06/03 13:31:07;;;;;;;7.90;5.20;;;27.70;67.30;;;;;;5018607;28;20463;-68
2022/06/03 13:33:59;;;;;;;7.03;5.37;;;27.70;67.20;;;;;;5016397;28;20427;-67
2022/06/03 13:36:38;;;;;;;5.67;5.27;;;27.90;67.20;;;;;;5015468;28;20485;-67
2022/06/03 13:39:05;;;;;;;6.57;5.67;;;28.00;67.30;;;;;;5017261;28;21141;-67
2022/06/03 13:45:01;;;;;;;7.23;5.50;;;28.20;66.20;;;;;;5013092;28;20851;-73
2022/06/03 13:47:31;;;;;;;5.50;5.00;;;28.10;65.70;;;;;;5009980;28;20450;-70
2022/06/03 13:50:18;;;;;;;6.30;5.20;;;28.00;66.30;;;;;;5009162;28;20462;-73
2022/06/03 13:52:46;;;;;;;8.10;5.07;;;27.90;66.00;;;;;;4990138;28;20429;-72
2022/06/03 13:55:14;;;;;;;6.83;4.83;;;27.90;66.30;;;;;;4993374;28;20490;-72
2022/06/03 13:57:42;;;;;;;6.17;5.57;;;27.70;66.50;;;;;;4990125;28;20432;-73
2022/06/03 14:00:24;;;;;;;6.13;5.53;;;27.40;67.50;;;;;;4993179;28;20424;-71
2022/06/03 14:03:05;;;;;;;6.73;5.07;;;27.40;68.20;;;;;;4990446;28;20436;-71
2022/06/03 14:06:06;;;;;;;6.73;5.70;;;27.30;68.20;;;;;;4990770;28;20684;-73
2022/06/03 14:08:41;;;;;;;7.70;5.57;;;26.90;69.20;;;;;;4990652;28;20440;-71
2022/06/03 14:11:18;;;;;;;5.73;5.00;;;26.80;70.00;;;;;;4992138;28;21019;-72
2022/06/03 14:13:53;;;;;;;5.20;4.70;;;26.80;70.30;;;;;;4989761;28;20440;-72
2022/06/03 14:16:31;;;;;;;5.30;4.63;;;26.80;70.90;;;;;;4993794;28;20437;-69
2022/06/03 14:19:28;;;;;;;5.87;4.67;;;27.00;70.60;;;;;;4990030;28;20444;-70
2022/06/03 14:21:55;;;;;;;5.63;4.80;;;27.00;70.40;;;;;;4994340;28;20463;-73
2022/06/03 14:24:48;;;;;;;5.60;5.10;;;27.00;70.50;;;;;;4991391;28;20519;-71
2022/06/03 14:27:29;;;;;;;5.70;5.10;;;27.00;70.40;;;;;;4990294;28;20531;-72
2022/06/03 14:30:23;;;;;;;6.00;5.40;;;27.10;70.10;;;;;;4989109;28;20464;-72
2022/06/03 14:32:53;;;;;;;4.90;4.50;;;27.00;70.70;;;;;;4955294;28;20433;-72
2022/06/03 14:35:33;;;;;;;5.80;5.20;;;27.10;70.90;;;;;;4990038;28;20467;-69
2022/06/03 14:38:25;;;;;;;6.50;5.00;;;27.20;71.10;;;;;;4992909;28;20498;-70